Skip Navigation Links
NOAA logo - Click to go to the NOAA homepage
NOAA's National Weather Service
Alaska Aviation Weather Unit
  NWS logo - Click to go to the NWS homepage
Left Navbar Graphic     03 AKDT = 11 GMT

   
NOAA is celebrating 200 years of science, service, and stewardship. Visit the NOAA 200th celebration Web site to learn more.
USA.gov is the U.S. Government's official Web portal to all Federal, state and local government Web resources and services.
Facebook
NWS on Facebook

AAWU Home :: Display TAF Add Bookmark
TAF CYZY 290638Z 2907/2909 17005KT P6SM FEW030 SCT060 OVC080 TEMPO
     2907/2909 BKN030
    RMK FCST BASED ON AUTO OBS. NXT FCST WILL BE ISSUED AT 291445Z=

METAR CYZY 290500Z AUTO 17006KT 9SM FEW034 BKN055 OVC076 03/02 A2982 RMK SLP126= METAR CYZY 290600Z AUTO 16004KT 9SM BKN035 BKN060 OVC140 03/02 A2983 RMK SLP131= METAR CYZY 290700Z AUTO 16006KT 9SM SCT037 OVC075 02/02 A2984 RMK SLP133= METAR CYZY 290800Z AUTO 16005KT 9SM OVC065 02/01 A2985 RMK SLP136= METAR CYZY 290900Z AUTO 15007KT 9SM FEW060 OVC100 02/01 A2985 RMK SLP136= METAR CYZY 291000Z AUTO 16008KT 9SM OVC048 02/01 A2986 RMK SLP138=
 Alaska TAF Map

NOAA's National Weather Service
Alaska Aviation Weather Unit
6930 Sand Lake Road
Anchorage, AK 99502-1845
Disclaimer
Credits
Glossary
Privacy Policy
About Us
Career Opportunities
Contact AAWU Internet Services Site last modified: April, 17th 2012